Pagrindinis puslapis
METAR-TAF:

METAR-TAF

Oro uostai :

Saris, Iranas

platuma: 36-38-09N, ilguma: 53-11-37E, Aukštis: 11 m

Dabartinis oras

Ataskaita buvo paskelbta 1 valandą ir 9 minutes, ne 16:00 UTC
Vėjas 4 kt iš Šiaurės/Šiaurės Rytų
Temperatūra 15°C
Drėgmė 77%
Slėgis 1013 hPa
Matomumas 10 km arba daugiau
Mažai debesys ne aukštis 9000 ft

METAR: OINZ 311600Z 03004KT 9999 FEW090 15/11 Q1013

Laikas: 21:39 (17:09 UTC)


TAF: trūkstamas

Orai ataskaitas ir orų prognozės (METAR, TAF).

turimą stotys yra geltonos ir raudonos taškus žemėlapyje.

Perkelti pele per norėdami pamatyti stoties vardą.

Tada spustelėkite, norėdami matyti oro stebėjimo ir prognozės.

Norėdami pakeisti žemėlapį: spustelėkite ant žalios mygtukų su juodo kryžiaus žemyn,; žalią mygtuką su brūkšneliu, jei norite nutolinti; arba žalių rodyklių gretimoms žemėlapius.


METAR-TAF: